sensor_id;sensor_type;location;lat;lon;timestamp;P1;durP1;ratioP1;P2;durP2;ratioP2
47790;SDS011;33547;49.044;1.156;2023-01-25T00:01:59;52.95;;;34.25;;
47790;SDS011;33547;49.044;1.156;2023-01-25T00:04:26;50.95;;;32.88;;
47790;SDS011;33547;49.044;1.156;2023-01-25T00:06:52;48.33;;;31.48;;
47790;SDS011;33547;49.044;1.156;2023-01-25T00:09:18;47.92;;;32.00;;
47790;SDS011;33547;49.044;1.156;2023-01-25T00:11:44;52.92;;;34.13;;
47790;SDS011;33547;49.044;1.156;2023-01-25T00:14:10;52.90;;;34.28;;
47790;SDS011;33547;49.044;1.156;2023-01-25T00:16:37;62.67;;;39.53;;
47790;SDS011;33547;49.044;1.156;2023-01-25T00:19:04;60.33;;;38.33;;
47790;SDS011;33547;49.044;1.156;2023-01-25T00:21:30;57.65;;;37.67;;
47790;SDS011;33547;49.044;1.156;2023-01-25T00:23:56;59.15;;;38.75;;
47790;SDS011;33547;49.044;1.156;2023-01-25T00:26:22;54.92;;;35.15;;
47790;SDS011;33547;49.044;1.156;2023-01-25T00:28:54;54.90;;;35.72;;
47790;SDS011;33547;49.044;1.156;2023-01-25T00:36:54;62.85;;;38.55;;
47790;SDS011;33547;49.044;1.156;2023-01-25T00:39:21;56.38;;;35.90;;
47790;SDS011;33547;49.044;1.156;2023-01-25T00:41:49;55.83;;;36.70;;
47790;SDS011;33547;49.044;1.156;2023-01-25T00:44:14;58.35;;;36.78;;
47790;SDS011;33547;49.044;1.156;2023-01-25T00:46:40;57.55;;;36.03;;
47790;SDS011;33547;49.044;1.156;2023-01-25T00:49:06;59.53;;;38.53;;
47790;SDS011;33547;49.044;1.156;2023-01-25T00:51:46;58.70;;;36.83;;
47790;SDS011;33547;49.044;1.156;2023-01-25T00:54:12;63.53;;;39.45;;
47790;SDS011;33547;49.044;1.156;2023-01-25T00:56:37;67.72;;;40.90;;
47790;SDS011;33547;49.044;1.156;2023-01-25T00:59:03;69.88;;;40.30;;
47790;SDS011;33547;49.044;1.156;2023-01-25T01:01:29;66.88;;;40.30;;
47790;SDS011;33547;49.044;1.156;2023-01-25T01:03:54;68.53;;;40.50;;
47790;SDS011;33547;49.044;1.156;2023-01-25T01:06:20;68.72;;;41.53;;
47790;SDS011;33547;49.044;1.156;2023-01-25T01:08:46;65.55;;;39.55;;
47790;SDS011;33547;49.044;1.156;2023-01-25T01:11:12;66.93;;;41.25;;
47790;SDS011;33547;49.044;1.156;2023-01-25T01:13:38;80.75;;;42.63;;
47790;SDS011;33547;49.044;1.156;2023-01-25T01:16:05;69.22;;;41.33;;
47790;SDS011;33547;49.044;1.156;2023-01-25T01:18:35;78.18;;;42.83;;
47790;SDS011;33547;49.044;1.156;2023-01-25T01:21:03;73.75;;;43.33;;
47790;SDS011;33547;49.044;1.156;2023-01-25T01:23:29;72.95;;;41.40;;
47790;SDS011;33547;49.044;1.156;2023-01-25T01:25:58;74.38;;;41.95;;
47790;SDS011;33547;49.044;1.156;2023-01-25T01:28:24;69.43;;;41.70;;
47790;SDS011;33547;49.044;1.156;2023-01-25T01:30:51;76.38;;;43.40;;
47790;SDS011;33547;49.044;1.156;2023-01-25T01:33:17;77.70;;;43.95;;
47790;SDS011;33547;49.044;1.156;2023-01-25T01:35:43;71.95;;;43.33;;
47790;SDS011;33547;49.044;1.156;2023-01-25T01:38:10;76.88;;;41.00;;
47790;SDS011;33547;49.044;1.156;2023-01-25T01:40:36;77.63;;;42.92;;
47790;SDS011;33547;49.044;1.156;2023-01-25T01:43:05;74.18;;;42.97;;
47790;SDS011;33547;49.044;1.156;2023-01-25T01:56:35;73.47;;;40.47;;
47790;SDS011;33547;49.044;1.156;2023-01-25T01:59:09;72.60;;;40.05;;
47790;SDS011;33547;49.044;1.156;2023-01-25T02:01:35;73.32;;;40.85;;
47790;SDS011;33547;49.044;1.156;2023-01-25T02:04:01;79.80;;;44.75;;
47790;SDS011;33547;49.044;1.156;2023-01-25T02:06:32;78.63;;;42.25;;
47790;SDS011;33547;49.044;1.156;2023-01-25T02:09:03;80.80;;;43.50;;
47790;SDS011;33547;49.044;1.156;2023-01-25T02:11:29;74.72;;;42.42;;
47790;SDS011;33547;49.044;1.156;2023-01-25T02:13:56;71.95;;;40.35;;
47790;SDS011;33547;49.044;1.156;2023-01-25T02:16:24;77.25;;;42.10;;
47790;SDS011;33547;49.044;1.156;2023-01-25T02:18:52;77.40;;;41.92;;
47790;SDS011;33547;49.044;1.156;2023-01-25T02:21:20;76.28;;;42.45;;
47790;SDS011;33547;49.044;1.156;2023-01-25T02:23:52;69.13;;;39.35;;
47790;SDS011;33547;49.044;1.156;2023-01-25T02:26:40;74.75;;;40.72;;
47790;SDS011;33547;49.044;1.156;2023-01-25T02:29:07;75.80;;;41.33;;
47790;SDS011;33547;49.044;1.156;2023-01-25T02:31:34;77.63;;;41.42;;
47790;SDS011;33547;49.044;1.156;2023-01-25T02:33:59;77.10;;;40.53;;
47790;SDS011;33547;49.044;1.156;2023-01-25T02:36:32;76.10;;;41.35;;
47790;SDS011;33547;49.044;1.156;2023-01-25T02:39:03;77.88;;;41.40;;
47790;SDS011;33547;49.044;1.156;2023-01-25T02:41:37;76.38;;;41.05;;
47790;SDS011;33547;49.044;1.156;2023-01-25T02:44:09;78.53;;;41.40;;
47790;SDS011;33547;49.044;1.156;2023-01-25T02:46:38;79.65;;;41.75;;
47790;SDS011;33547;49.044;1.156;2023-01-25T02:49:05;73.63;;;40.45;;
47790;SDS011;33547;49.044;1.156;2023-01-25T02:51:33;68.07;;;37.88;;
47790;SDS011;33547;49.044;1.156;2023-01-25T02:54:02;69.75;;;39.03;;
47790;SDS011;33547;49.044;1.156;2023-01-25T02:56:30;80.72;;;41.65;;
47790;SDS011;33547;49.044;1.156;2023-01-25T02:58:56;76.43;;;39.90;;
47790;SDS011;33547;49.044;1.156;2023-01-25T03:01:22;66.47;;;37.38;;
47790;SDS011;33547;49.044;1.156;2023-01-25T03:03:47;68.38;;;37.08;;
47790;SDS011;33547;49.044;1.156;2023-01-25T03:06:13;65.95;;;36.58;;
47790;SDS011;33547;49.044;1.156;2023-01-25T03:08:39;70.10;;;36.92;;
47790;SDS011;33547;49.044;1.156;2023-01-25T03:11:05;67.63;;;36.58;;
47790;SDS011;33547;49.044;1.156;2023-01-25T03:13:33;65.68;;;35.42;;
47790;SDS011;33547;49.044;1.156;2023-01-25T03:16:04;68.72;;;35.60;;
47790;SDS011;33547;49.044;1.156;2023-01-25T03:18:32;68.45;;;37.30;;
47790;SDS011;33547;49.044;1.156;2023-01-25T03:21:11;74.95;;;38.25;;
47790;SDS011;33547;49.044;1.156;2023-01-25T03:23:45;64.03;;;35.65;;
47790;SDS011;33547;49.044;1.156;2023-01-25T03:28:40;79.30;;;39.50;;
47790;SDS011;33547;49.044;1.156;2023-01-25T03:31:07;76.43;;;40.92;;
47790;SDS011;33547;49.044;1.156;2023-01-25T03:33:35;68.05;;;37.70;;
47790;SDS011;33547;49.044;1.156;2023-01-25T03:36:01;77.35;;;39.08;;
47790;SDS011;33547;49.044;1.156;2023-01-25T03:38:28;82.00;;;41.05;;
47790;SDS011;33547;49.044;1.156;2023-01-25T03:40:54;74.28;;;39.28;;
47790;SDS011;33547;49.044;1.156;2023-01-25T03:43:20;67.60;;;35.88;;
47790;SDS011;33547;49.044;1.156;2023-01-25T03:45:50;76.30;;;39.05;;
47790;SDS011;33547;49.044;1.156;2023-01-25T03:48:20;63.88;;;36.10;;
47790;SDS011;33547;49.044;1.156;2023-01-25T03:50:50;64.70;;;35.10;;
47790;SDS011;33547;49.044;1.156;2023-01-25T03:53:20;68.90;;;34.90;;
47790;SDS011;33547;49.044;1.156;2023-01-25T03:58:27;66.18;;;37.58;;
47790;SDS011;33547;49.044;1.156;2023-01-25T04:00:54;62.38;;;36.25;;
47790;SDS011;33547;49.044;1.156;2023-01-25T04:03:21;64.88;;;36.15;;
47790;SDS011;33547;49.044;1.156;2023-01-25T04:05:47;64.40;;;35.75;;
47790;SDS011;33547;49.044;1.156;2023-01-25T04:08:13;68.53;;;36.78;;
47790;SDS011;33547;49.044;1.156;2023-01-25T04:10:39;63.75;;;34.80;;
47790;SDS011;33547;49.044;1.156;2023-01-25T04:13:05;58.40;;;33.10;;
47790;SDS011;33547;49.044;1.156;2023-01-25T04:15:31;65.97;;;34.72;;
47790;SDS011;33547;49.044;1.156;2023-01-25T04:17:56;64.90;;;34.35;;
47790;SDS011;33547;49.044;1.156;2023-01-25T04:20:22;60.70;;;35.85;;
47790;SDS011;33547;49.044;1.156;2023-01-25T04:22:48;60.17;;;33.50;;
47790;SDS011;33547;49.044;1.156;2023-01-25T04:25:13;65.07;;;35.55;;
47790;SDS011;33547;49.044;1.156;2023-01-25T04:27:39;62.50;;;34.22;;
47790;SDS011;33547;49.044;1.156;2023-01-25T04:30:05;69.72;;;35.92;;
47790;SDS011;33547;49.044;1.156;2023-01-25T04:32:33;64.85;;;34.95;;
47790;SDS011;33547;49.044;1.156;2023-01-25T04:34:59;66.35;;;34.78;;
47790;SDS011;33547;49.044;1.156;2023-01-25T04:37:25;66.32;;;35.20;;
47790;SDS011;33547;49.044;1.156;2023-01-25T04:39:50;58.70;;;33.55;;
47790;SDS011;33547;49.044;1.156;2023-01-25T04:42:16;68.35;;;36.55;;
47790;SDS011;33547;49.044;1.156;2023-01-25T04:44:42;55.03;;;29.63;;
47790;SDS011;33547;49.044;1.156;2023-01-25T04:47:07;59.58;;;31.67;;
47790;SDS011;33547;49.044;1.156;2023-01-25T04:49:33;52.80;;;28.85;;
47790;SDS011;33547;49.044;1.156;2023-01-25T04:51:58;50.70;;;29.42;;
47790;SDS011;33547;49.044;1.156;2023-01-25T04:54:24;57.92;;;30.38;;
47790;SDS011;33547;49.044;1.156;2023-01-25T04:56:50;57.00;;;30.73;;
47790;SDS011;33547;49.044;1.156;2023-01-25T04:59:15;54.40;;;29.02;;
47790;SDS011;33547;49.044;1.156;2023-01-25T05:01:41;56.20;;;29.30;;
47790;SDS011;33547;49.044;1.156;2023-01-25T05:04:06;51.67;;;29.17;;
47790;SDS011;33547;49.044;1.156;2023-01-25T05:06:32;54.75;;;29.88;;
47790;SDS011;33547;49.044;1.156;2023-01-25T05:08:58;57.53;;;30.33;;
47790;SDS011;33547;49.044;1.156;2023-01-25T05:11:24;52.88;;;28.50;;
47790;SDS011;33547;49.044;1.156;2023-01-25T05:13:49;55.78;;;28.92;;
47790;SDS011;33547;49.044;1.156;2023-01-25T05:16:16;48.30;;;27.58;;
47790;SDS011;33547;49.044;1.156;2023-01-25T05:18:42;59.47;;;28.83;;
47790;SDS011;33547;49.044;1.156;2023-01-25T05:21:07;50.17;;;27.45;;
47790;SDS011;33547;49.044;1.156;2023-01-25T05:23:53;51.88;;;28.15;;
47790;SDS011;33547;49.044;1.156;2023-01-25T05:26:19;54.83;;;29.20;;
47790;SDS011;33547;49.044;1.156;2023-01-25T05:29:03;62.63;;;29.65;;
47790;SDS011;33547;49.044;1.156;2023-01-25T05:31:28;56.65;;;29.23;;
47790;SDS011;33547;49.044;1.156;2023-01-25T05:33:54;59.17;;;28.77;;
47790;SDS011;33547;49.044;1.156;2023-01-25T05:36:20;49.33;;;26.45;;
47790;SDS011;33547;49.044;1.156;2023-01-25T05:38:45;53.47;;;27.38;;
47790;SDS011;33547;49.044;1.156;2023-01-25T05:41:11;53.35;;;27.55;;
47790;SDS011;33547;49.044;1.156;2023-01-25T05:43:36;57.80;;;28.42;;
47790;SDS011;33547;49.044;1.156;2023-01-25T05:46:02;56.20;;;27.60;;
47790;SDS011;33547;49.044;1.156;2023-01-25T05:48:29;53.83;;;28.08;;
47790;SDS011;33547;49.044;1.156;2023-01-25T05:50:58;61.97;;;30.45;;
47790;SDS011;33547;49.044;1.156;2023-01-25T05:53:27;54.97;;;27.05;;
47790;SDS011;33547;49.044;1.156;2023-01-25T05:55:53;51.83;;;27.23;;
47790;SDS011;33547;49.044;1.156;2023-01-25T05:58:19;48.75;;;25.42;;
47790;SDS011;33547;49.044;1.156;2023-01-25T06:00:44;46.05;;;23.52;;
47790;SDS011;33547;49.044;1.156;2023-01-25T06:03:10;43.03;;;24.42;;
47790;SDS011;33547;49.044;1.156;2023-01-25T06:05:35;35.05;;;20.02;;
47790;SDS011;33547;49.044;1.156;2023-01-25T06:08:01;27.25;;;17.67;;
47790;SDS011;33547;49.044;1.156;2023-01-25T06:10:27;21.75;;;13.10;;
47790;SDS011;33547;49.044;1.156;2023-01-25T06:12:58;20.45;;;14.05;;
47790;SDS011;33547;49.044;1.156;2023-01-25T06:15:24;35.22;;;19.52;;
47790;SDS011;33547;49.044;1.156;2023-01-25T06:17:54;36.53;;;19.50;;
47790;SDS011;33547;49.044;1.156;2023-01-25T06:20:20;34.85;;;20.33;;
47790;SDS011;33547;49.044;1.156;2023-01-25T06:22:49;24.27;;;15.65;;
47790;SDS011;33547;49.044;1.156;2023-01-25T06:25:16;22.83;;;14.00;;
47790;SDS011;33547;49.044;1.156;2023-01-25T06:27:42;23.52;;;13.90;;
47790;SDS011;33547;49.044;1.156;2023-01-25T06:30:08;27.38;;;15.80;;
47790;SDS011;33547;49.044;1.156;2023-01-25T06:32:34;27.27;;;16.73;;
47790;SDS011;33547;49.044;1.156;2023-01-25T06:35:00;28.67;;;17.40;;
47790;SDS011;33547;49.044;1.156;2023-01-25T06:37:26;30.77;;;18.00;;
47790;SDS011;33547;49.044;1.156;2023-01-25T06:39:52;31.00;;;17.88;;
47790;SDS011;33547;49.044;1.156;2023-01-25T06:42:18;31.67;;;18.27;;
47790;SDS011;33547;49.044;1.156;2023-01-25T06:44:43;37.58;;;20.77;;
47790;SDS011;33547;49.044;1.156;2023-01-25T06:47:10;56.53;;;28.33;;
47790;SDS011;33547;49.044;1.156;2023-01-25T06:49:36;51.40;;;26.92;;
47790;SDS011;33547;49.044;1.156;2023-01-25T06:52:02;50.63;;;26.40;;
47790;SDS011;33547;49.044;1.156;2023-01-25T06:54:28;49.58;;;25.80;;
47790;SDS011;33547;49.044;1.156;2023-01-25T06:56:54;49.40;;;26.83;;
47790;SDS011;33547;49.044;1.156;2023-01-25T06:59:19;54.63;;;27.92;;
47790;SDS011;33547;49.044;1.156;2023-01-25T07:01:45;52.88;;;27.30;;
47790;SDS011;33547;49.044;1.156;2023-01-25T07:04:11;45.05;;;24.27;;
47790;SDS011;33547;49.044;1.156;2023-01-25T07:06:37;33.38;;;19.08;;
47790;SDS011;33547;49.044;1.156;2023-01-25T07:09:04;40.15;;;22.63;;
47790;SDS011;33547;49.044;1.156;2023-01-25T07:11:31;51.97;;;26.38;;
47790;SDS011;33547;49.044;1.156;2023-01-25T07:13:57;58.40;;;28.25;;
47790;SDS011;33547;49.044;1.156;2023-01-25T07:16:22;59.80;;;29.45;;
47790;SDS011;33547;49.044;1.156;2023-01-25T07:18:48;47.47;;;25.15;;
47790;SDS011;33547;49.044;1.156;2023-01-25T07:21:15;35.42;;;21.15;;
47790;SDS011;33547;49.044;1.156;2023-01-25T07:23:42;32.40;;;18.48;;
47790;SDS011;33547;49.044;1.156;2023-01-25T07:26:21;31.55;;;17.90;;
47790;SDS011;33547;49.044;1.156;2023-01-25T07:28:47;40.35;;;21.85;;
47790;SDS011;33547;49.044;1.156;2023-01-25T07:31:15;46.10;;;23.83;;
47790;SDS011;33547;49.044;1.156;2023-01-25T07:33:42;52.55;;;25.83;;
47790;SDS011;33547;49.044;1.156;2023-01-25T07:36:09;61.55;;;27.88;;
47790;SDS011;33547;49.044;1.156;2023-01-25T07:38:35;60.38;;;27.58;;
47790;SDS011;33547;49.044;1.156;2023-01-25T07:41:02;49.50;;;25.27;;
47790;SDS011;33547;49.044;1.156;2023-01-25T07:43:28;48.63;;;25.63;;
47790;SDS011;33547;49.044;1.156;2023-01-25T07:46:01;52.67;;;26.83;;
47790;SDS011;33547;49.044;1.156;2023-01-25T07:48:28;49.50;;;25.90;;
47790;SDS011;33547;49.044;1.156;2023-01-25T07:51:01;43.83;;;23.70;;
47790;SDS011;33547;49.044;1.156;2023-01-25T07:53:35;45.03;;;24.77;;
47790;SDS011;33547;49.044;1.156;2023-01-25T07:56:02;47.92;;;26.08;;
47790;SDS011;33547;49.044;1.156;2023-01-25T07:58:27;56.80;;;28.02;;
47790;SDS011;33547;49.044;1.156;2023-01-25T08:00:53;48.60;;;25.35;;
47790;SDS011;33547;49.044;1.156;2023-01-25T08:03:19;48.42;;;25.88;;
47790;SDS011;33547;49.044;1.156;2023-01-25T08:05:46;56.17;;;27.65;;
47790;SDS011;33547;49.044;1.156;2023-01-25T08:08:12;58.03;;;29.08;;
47790;SDS011;33547;49.044;1.156;2023-01-25T08:10:38;59.97;;;28.45;;
47790;SDS011;33547;49.044;1.156;2023-01-25T08:13:04;66.47;;;30.75;;
47790;SDS011;33547;49.044;1.156;2023-01-25T08:15:31;58.13;;;29.15;;
47790;SDS011;33547;49.044;1.156;2023-01-25T08:18:00;52.47;;;25.67;;
47790;SDS011;33547;49.044;1.156;2023-01-25T08:20:26;60.50;;;28.88;;
47790;SDS011;33547;49.044;1.156;2023-01-25T08:22:51;60.60;;;28.95;;
47790;SDS011;33547;49.044;1.156;2023-01-25T08:25:17;55.85;;;29.38;;
47790;SDS011;33547;49.044;1.156;2023-01-25T08:27:43;52.67;;;26.48;;
47790;SDS011;33547;49.044;1.156;2023-01-25T08:30:09;52.33;;;25.40;;
47790;SDS011;33547;49.044;1.156;2023-01-25T08:32:36;64.05;;;30.00;;
47790;SDS011;33547;49.044;1.156;2023-01-25T08:35:02;61.85;;;28.85;;
47790;SDS011;33547;49.044;1.156;2023-01-25T08:37:28;53.65;;;27.65;;
47790;SDS011;33547;49.044;1.156;2023-01-25T08:39:54;59.28;;;27.88;;
47790;SDS011;33547;49.044;1.156;2023-01-25T08:42:24;56.70;;;28.67;;
47790;SDS011;33547;49.044;1.156;2023-01-25T08:44:50;64.53;;;31.92;;
47790;SDS011;33547;49.044;1.156;2023-01-25T08:47:15;67.13;;;31.80;;
47790;SDS011;33547;49.044;1.156;2023-01-25T08:49:41;67.40;;;32.33;;
47790;SDS011;33547;49.044;1.156;2023-01-25T08:52:07;69.55;;;33.50;;
47790;SDS011;33547;49.044;1.156;2023-01-25T08:54:32;69.93;;;33.30;;
47790;SDS011;33547;49.044;1.156;2023-01-25T08:56:59;76.93;;;33.60;;
47790;SDS011;33547;49.044;1.156;2023-01-25T08:59:25;68.88;;;34.05;;
47790;SDS011;33547;49.044;1.156;2023-01-25T09:01:51;75.03;;;37.17;;
47790;SDS011;33547;49.044;1.156;2023-01-25T09:04:17;72.60;;;36.72;;
47790;SDS011;33547;49.044;1.156;2023-01-25T09:06:42;73.28;;;36.88;;
47790;SDS011;33547;49.044;1.156;2023-01-25T09:09:10;68.18;;;35.05;;
47790;SDS011;33547;49.044;1.156;2023-01-25T09:11:36;72.55;;;38.22;;
47790;SDS011;33547;49.044;1.156;2023-01-25T09:14:04;75.57;;;38.53;;
47790;SDS011;33547;49.044;1.156;2023-01-25T09:16:29;69.22;;;35.78;;
47790;SDS011;33547;49.044;1.156;2023-01-25T09:18:56;66.63;;;35.42;;
47790;SDS011;33547;49.044;1.156;2023-01-25T09:21:23;66.25;;;34.13;;
47790;SDS011;33547;49.044;1.156;2023-01-25T09:23:49;72.00;;;36.70;;
47790;SDS011;33547;49.044;1.156;2023-01-25T09:26:16;78.15;;;38.22;;
47790;SDS011;33547;49.044;1.156;2023-01-25T09:28:45;82.03;;;41.58;;
47790;SDS011;33547;49.044;1.156;2023-01-25T09:31:16;83.40;;;41.55;;
47790;SDS011;33547;49.044;1.156;2023-01-25T09:33:42;84.80;;;43.05;;
47790;SDS011;33547;49.044;1.156;2023-01-25T09:36:08;88.20;;;42.50;;
47790;SDS011;33547;49.044;1.156;2023-01-25T09:38:34;91.32;;;43.20;;
47790;SDS011;33547;49.044;1.156;2023-01-25T09:46:07;94.07;;;47.13;;
47790;SDS011;33547;49.044;1.156;2023-01-25T09:49:03;91.05;;;45.47;;
47790;SDS011;33547;49.044;1.156;2023-01-25T09:54:23;82.90;;;43.08;;
47790;SDS011;33547;49.044;1.156;2023-01-25T09:56:50;82.30;;;43.05;;
47790;SDS011;33547;49.044;1.156;2023-01-25T09:59:17;84.20;;;45.13;;
47790;SDS011;33547;49.044;1.156;2023-01-25T10:01:54;83.22;;;43.47;;
47790;SDS011;33547;49.044;1.156;2023-01-25T10:04:36;84.97;;;44.40;;
47790;SDS011;33547;49.044;1.156;2023-01-25T10:07:17;86.43;;;45.55;;
47790;SDS011;33547;49.044;1.156;2023-01-25T10:10:03;87.38;;;45.08;;
47790;SDS011;33547;49.044;1.156;2023-01-25T10:12:37;83.65;;;44.30;;
47790;SDS011;33547;49.044;1.156;2023-01-25T10:20:41;91.05;;;48.25;;
47790;SDS011;33547;49.044;1.156;2023-01-25T10:26:04;89.18;;;46.40;;
47790;SDS011;33547;49.044;1.156;2023-01-25T10:28:50;85.38;;;46.63;;
47790;SDS011;33547;49.044;1.156;2023-01-25T10:31:46;86.97;;;46.08;;
47790;SDS011;33547;49.044;1.156;2023-01-25T10:34:29;89.85;;;46.72;;
47790;SDS011;33547;49.044;1.156;2023-01-25T10:37:02;88.55;;;48.30;;
47790;SDS011;33547;49.044;1.156;2023-01-25T10:39:35;89.80;;;46.20;;
47790;SDS011;33547;49.044;1.156;2023-01-25T10:42:07;100.90;;;51.15;;
47790;SDS011;33547;49.044;1.156;2023-01-25T10:44:35;96.50;;;49.85;;
47790;SDS011;33547;49.044;1.156;2023-01-25T10:47:15;99.38;;;52.50;;
47790;SDS011;33547;49.044;1.156;2023-01-25T10:49:51;100.30;;;51.83;;
47790;SDS011;33547;49.044;1.156;2023-01-25T10:52:26;89.45;;;47.03;;
47790;SDS011;33547;49.044;1.156;2023-01-25T10:57:37;93.75;;;48.92;;
47790;SDS011;33547;49.044;1.156;2023-01-25T11:03:03;94.93;;;48.20;;
47790;SDS011;33547;49.044;1.156;2023-01-25T11:05:31;97.93;;;50.33;;
47790;SDS011;33547;49.044;1.156;2023-01-25T11:08:14;98.57;;;50.10;;
47790;SDS011;33547;49.044;1.156;2023-01-25T11:10:49;95.68;;;48.67;;
47790;SDS011;33547;49.044;1.156;2023-01-25T11:18:18;90.88;;;49.42;;
47790;SDS011;33547;49.044;1.156;2023-01-25T11:23:40;99.57;;;53.90;;
47790;SDS011;33547;49.044;1.156;2023-01-25T11:26:18;94.55;;;48.70;;
47790;SDS011;33547;49.044;1.156;2023-01-25T11:28:44;90.53;;;48.35;;
47790;SDS011;33547;49.044;1.156;2023-01-25T11:31:20;89.15;;;49.28;;
47790;SDS011;33547;49.044;1.156;2023-01-25T11:33:46;91.10;;;48.60;;
47790;SDS011;33547;49.044;1.156;2023-01-25T11:42:15;94.93;;;48.03;;
47790;SDS011;33547;49.044;1.156;2023-01-25T11:47:56;88.82;;;48.65;;
47790;SDS011;33547;49.044;1.156;2023-01-25T11:50:40;90.75;;;44.67;;
47790;SDS011;33547;49.044;1.156;2023-01-25T11:56:07;87.18;;;49.20;;
47790;SDS011;33547;49.044;1.156;2023-01-25T12:07:10;90.25;;;46.90;;
47790;SDS011;33547;49.044;1.156;2023-01-25T12:12:55;99.68;;;53.53;;
47790;SDS011;33547;49.044;1.156;2023-01-25T12:20:53;105.88;;;54.58;;
47790;SDS011;33547;49.044;1.156;2023-01-25T12:26:20;105.65;;;56.50;;
47790;SDS011;33547;49.044;1.156;2023-01-25T12:31:36;97.30;;;52.00;;
47790;SDS011;33547;49.044;1.156;2023-01-25T12:34:13;98.28;;;52.90;;
47790;SDS011;33547;49.044;1.156;2023-01-25T12:36:49;98.22;;;49.47;;
47790;SDS011;33547;49.044;1.156;2023-01-25T12:44:37;96.18;;;51.10;;
47790;SDS011;33547;49.044;1.156;2023-01-25T12:54:52;96.45;;;52.05;;
47790;SDS011;33547;49.044;1.156;2023-01-25T13:10:47;88.65;;;47.95;;
47790;SDS011;33547;49.044;1.156;2023-01-25T13:15:47;101.53;;;50.95;;
47790;SDS011;33547;49.044;1.156;2023-01-25T13:21:02;98.15;;;51.72;;
47790;SDS011;33547;49.044;1.156;2023-01-25T13:24:12;100.38;;;51.65;;
47790;SDS011;33547;49.044;1.156;2023-01-25T13:27:22;96.93;;;50.90;;
47790;SDS011;33547;49.044;1.156;2023-01-25T13:29:56;94.80;;;50.45;;
47790;SDS011;33547;49.044;1.156;2023-01-25T13:39:54;98.55;;;50.55;;
47790;SDS011;33547;49.044;1.156;2023-01-25T13:42:24;93.60;;;49.13;;
47790;SDS011;33547;49.044;1.156;2023-01-25T13:45:00;96.28;;;49.80;;
47790;SDS011;33547;49.044;1.156;2023-01-25T13:47:38;91.50;;;48.58;;
47790;SDS011;33547;49.044;1.156;2023-01-25T13:50:08;98.88;;;48.63;;
47790;SDS011;33547;49.044;1.156;2023-01-25T13:52:38;87.47;;;46.58;;
47790;SDS011;33547;49.044;1.156;2023-01-25T13:55:19;96.85;;;50.30;;
47790;SDS011;33547;49.044;1.156;2023-01-25T13:57:45;90.35;;;47.15;;
47790;SDS011;33547;49.044;1.156;2023-01-25T14:00:14;92.05;;;50.05;;
47790;SDS011;33547;49.044;1.156;2023-01-25T14:02:44;87.50;;;46.05;;
47790;SDS011;33547;49.044;1.156;2023-01-25T14:05:23;89.20;;;46.05;;
47790;SDS011;33547;49.044;1.156;2023-01-25T14:07:53;93.15;;;46.53;;
47790;SDS011;33547;49.044;1.156;2023-01-25T14:10:22;88.80;;;46.20;;
47790;SDS011;33547;49.044;1.156;2023-01-25T14:12:50;97.70;;;52.75;;
47790;SDS011;33547;49.044;1.156;2023-01-25T14:15:22;87.63;;;47.28;;
47790;SDS011;33547;49.044;1.156;2023-01-25T14:20:41;88.45;;;48.25;;
47790;SDS011;33547;49.044;1.156;2023-01-25T14:23:28;88.60;;;45.97;;
47790;SDS011;33547;49.044;1.156;2023-01-25T14:25:55;85.85;;;44.65;;
47790;SDS011;33547;49.044;1.156;2023-01-25T14:28:23;87.15;;;46.00;;
47790;SDS011;33547;49.044;1.156;2023-01-25T14:30:54;87.45;;;47.22;;
47790;SDS011;33547;49.044;1.156;2023-01-25T14:33:26;82.57;;;45.00;;
47790;SDS011;33547;49.044;1.156;2023-01-25T14:36:14;85.60;;;44.67;;
47790;SDS011;33547;49.044;1.156;2023-01-25T14:38:40;89.80;;;46.33;;
47790;SDS011;33547;49.044;1.156;2023-01-25T14:41:10;94.38;;;48.50;;
47790;SDS011;33547;49.044;1.156;2023-01-25T14:43:40;88.22;;;46.53;;
47790;SDS011;33547;49.044;1.156;2023-01-25T14:46:22;90.32;;;47.67;;
47790;SDS011;33547;49.044;1.156;2023-01-25T14:49:08;88.47;;;45.67;;
47790;SDS011;33547;49.044;1.156;2023-01-25T14:54:18;85.37;;;44.80;;
47790;SDS011;33547;49.044;1.156;2023-01-25T14:56:45;87.18;;;47.13;;
47790;SDS011;33547;49.044;1.156;2023-01-25T15:01:51;90.80;;;47.47;;
47790;SDS011;33547;49.044;1.156;2023-01-25T15:04:20;93.65;;;49.53;;
47790;SDS011;33547;49.044;1.156;2023-01-25T15:06:49;94.68;;;49.72;;
47790;SDS011;33547;49.044;1.156;2023-01-25T15:12:52;88.20;;;45.65;;
47790;SDS011;33547;49.044;1.156;2023-01-25T15:14:50;84.60;;;45.13;;
47790;SDS011;33547;49.044;1.156;2023-01-25T15:20:05;89.55;;;45.35;;
47790;SDS011;33547;49.044;1.156;2023-01-25T15:22:49;88.30;;;44.67;;
47790;SDS011;33547;49.044;1.156;2023-01-25T15:25:15;91.47;;;47.70;;
47790;SDS011;33547;49.044;1.156;2023-01-25T15:27:41;92.00;;;48.65;;
47790;SDS011;33547;49.044;1.156;2023-01-25T15:30:13;89.57;;;46.67;;
47790;SDS011;33547;49.044;1.156;2023-01-25T15:32:40;86.70;;;41.75;;
47790;SDS011;33547;49.044;1.156;2023-01-25T15:37:39;95.22;;;48.97;;
47790;SDS011;33547;49.044;1.156;2023-01-25T15:40:05;101.85;;;55.55;;
47790;SDS011;33547;49.044;1.156;2023-01-25T15:42:32;100.20;;;53.28;;
47790;SDS011;33547;49.044;1.156;2023-01-25T15:44:57;112.78;;;57.67;;
47790;SDS011;33547;49.044;1.156;2023-01-25T15:47:23;105.97;;;52.65;;
47790;SDS011;33547;49.044;1.156;2023-01-25T15:49:49;105.78;;;51.10;;
47790;SDS011;33547;49.044;1.156;2023-01-25T15:52:15;108.28;;;53.78;;
47790;SDS011;33547;49.044;1.156;2023-01-25T15:54:41;97.22;;;49.83;;
47790;SDS011;33547;49.044;1.156;2023-01-25T15:57:07;100.57;;;50.35;;
47790;SDS011;33547;49.044;1.156;2023-01-25T16:00:00;92.47;;;48.25;;
47790;SDS011;33547;49.044;1.156;2023-01-25T16:02:27;89.70;;;47.35;;
47790;SDS011;33547;49.044;1.156;2023-01-25T16:04:53;98.32;;;49.90;;
47790;SDS011;33547;49.044;1.156;2023-01-25T16:07:23;98.25;;;49.78;;
47790;SDS011;33547;49.044;1.156;2023-01-25T16:09:51;98.22;;;51.30;;
47790;SDS011;33547;49.044;1.156;2023-01-25T16:12:17;94.00;;;48.55;;
47790;SDS011;33547;49.044;1.156;2023-01-25T16:14:43;97.60;;;50.10;;
47790;SDS011;33547;49.044;1.156;2023-01-25T16:17:17;94.60;;;50.90;;
47790;SDS011;33547;49.044;1.156;2023-01-25T16:19:44;93.30;;;48.50;;
47790;SDS011;33547;49.044;1.156;2023-01-25T16:22:15;96.57;;;50.45;;
47790;SDS011;33547;49.044;1.156;2023-01-25T16:24:42;101.25;;;52.97;;
47790;SDS011;33547;49.044;1.156;2023-01-25T16:27:18;95.38;;;49.67;;
47790;SDS011;33547;49.044;1.156;2023-01-25T16:29:49;94.40;;;51.05;;
47790;SDS011;33547;49.044;1.156;2023-01-25T16:32:16;94.45;;;47.85;;
47790;SDS011;33547;49.044;1.156;2023-01-25T16:34:41;96.20;;;50.40;;
47790;SDS011;33547;49.044;1.156;2023-01-25T16:37:12;102.57;;;52.90;;
47790;SDS011;33547;49.044;1.156;2023-01-25T16:39:39;92.03;;;47.90;;
47790;SDS011;33547;49.044;1.156;2023-01-25T16:42:05;99.55;;;51.25;;
47790;SDS011;33547;49.044;1.156;2023-01-25T16:44:33;91.50;;;48.85;;
47790;SDS011;33547;49.044;1.156;2023-01-25T16:46:58;92.85;;;49.53;;
47790;SDS011;33547;49.044;1.156;2023-01-25T16:49:24;93.15;;;49.33;;
47790;SDS011;33547;49.044;1.156;2023-01-25T16:51:51;96.65;;;49.20;;
47790;SDS011;33547;49.044;1.156;2023-01-25T16:54:18;92.57;;;50.42;;